Time;durP1;ratioP1;P1;durP2;ratioP2;P2;SDS_P1;SDS_P2;PMS_P1;PMS_P2;Temp;Humidity;BMP_temperature;BMP_pressure;BME280_temperature;BME280_humidity;BME280_pressure;Samples;Min_cycle;Max_cycle;Signal;HPM_P1;HPM_P2
2023/12/30 00:01:41;;;;;;;6.73;3.80;;;11.80;99.90;;;;;;4900135;29;20909;-69
2023/12/30 00:04:07;;;;;;;5.23;3.20;;;11.80;99.90;;;;;;4897981;29;20801;-68
2023/12/30 00:06:34;;;;;;;6.90;3.70;;;11.70;99.90;;;;;;4882620;29;20514;-69
2023/12/30 00:08:59;;;;;;;5.23;4.13;;;11.70;99.90;;;;;;4897324;29;20218;-63
2023/12/30 00:11:25;;;;;;;4.50;4.07;;;11.80;99.90;;;;;;4878839;29;20431;-68
2023/12/30 00:13:51;;;;;;;6.33;3.60;;;11.70;99.90;;;;;;4895336;29;20192;-68
2023/12/30 00:16:17;;;;;;;10.43;4.17;;;11.70;99.90;;;;;;4896661;29;20600;-68
2023/12/30 00:18:42;;;;;;;3.70;3.37;;;11.60;99.90;;;;;;4873655;29;20191;-69
2023/12/30 00:21:08;;;;;;;4.27;3.80;;;11.60;99.90;;;;;;4894994;29;20228;-68
2023/12/30 00:23:35;;;;;;;4.03;3.70;;;11.60;99.90;;;;;;4888131;29;20249;-69
2023/12/30 00:26:01;;;;;;;6.57;3.83;;;11.60;99.90;;;;;;4898740;29;20201;-63
2023/12/30 00:28:27;;;;;;;4.43;3.77;;;11.60;99.90;;;;;;4885062;29;20443;-69
2023/12/30 00:30:53;;;;;;;4.60;3.60;;;11.60;99.90;;;;;;4873481;29;20432;-69
2023/12/30 00:33:18;;;;;;;4.07;3.60;;;11.50;99.90;;;;;;4898853;29;20205;-68
2023/12/30 00:35:44;;;;;;;5.20;3.67;;;11.50;99.90;;;;;;4867293;29;20705;-68
2023/12/30 00:38:10;;;;;;;4.20;3.70;;;11.50;99.90;;;;;;4898750;29;20181;-67
2023/12/30 00:40:36;;;;;;;6.10;4.00;;;11.60;99.90;;;;;;4897891;29;20183;-68
2023/12/30 00:43:01;;;;;;;3.87;3.57;;;11.60;99.90;;;;;;4898847;29;20186;-62
2023/12/30 00:45:27;;;;;;;3.60;3.30;;;11.50;99.90;;;;;;4898019;29;20189;-68
2023/12/30 00:47:53;;;;;;;4.43;3.27;;;11.50;99.90;;;;;;4898228;29;20242;-67
2023/12/30 00:50:19;;;;;;;3.53;3.20;;;11.60;99.90;;;;;;4897222;29;20685;-67
2023/12/30 00:52:44;;;;;;;7.80;3.43;;;11.50;99.90;;;;;;4871881;29;20966;-68
2023/12/30 00:55:10;;;;;;;6.87;3.47;;;11.50;99.90;;;;;;4893545;29;20258;-67
2023/12/30 00:57:36;;;;;;;6.10;3.30;;;11.50;99.90;;;;;;4898402;29;20187;-68
2023/12/30 01:00:03;;;;;;;4.27;3.20;;;11.60;99.90;;;;;;4882080;29;20272;-62
2023/12/30 01:02:29;;;;;;;4.43;3.40;;;11.50;99.90;;;;;;4897954;29;20270;-68
2023/12/30 01:04:55;;;;;;;4.57;3.70;;;11.50;99.90;;;;;;4898069;29;20570;-68
2023/12/30 01:07:20;;;;;;;5.10;3.57;;;11.40;99.90;;;;;;4871525;29;21030;-68
2023/12/30 01:09:46;;;;;;;3.73;3.43;;;11.40;99.90;;;;;;4899129;29;20645;-69
2023/12/30 01:12:12;;;;;;;5.80;3.60;;;11.50;99.90;;;;;;4880099;29;20192;-68
2023/12/30 01:14:37;;;;;;;5.40;3.97;;;11.40;99.90;;;;;;4881469;29;20190;-68
2023/12/30 01:17:03;;;;;;;3.57;2.97;;;11.30;99.90;;;;;;4898728;29;20621;-63
2023/12/30 01:19:29;;;;;;;6.77;3.33;;;11.40;99.90;;;;;;4897081;29;20187;-68
2023/12/30 01:21:55;;;;;;;5.37;3.30;;;11.40;99.90;;;;;;4880665;29;20659;-68
2023/12/30 01:24:20;;;;;;;4.47;3.40;;;11.50;99.90;;;;;;4896787;29;20186;-68
2023/12/30 01:26:46;;;;;;;5.80;3.07;;;11.50;99.90;;;;;;4898635;29;20216;-68
2023/12/30 01:29:12;;;;;;;4.10;3.50;;;11.60;99.90;;;;;;4896990;29;20202;-67
2023/12/30 01:31:38;;;;;;;6.63;3.83;;;11.50;99.90;;;;;;4897135;29;20176;-67
2023/12/30 01:34:03;;;;;;;3.53;3.23;;;11.50;99.90;;;;;;4897953;29;20179;-62
2023/12/30 01:36:29;;;;;;;3.20;2.90;;;11.50;99.90;;;;;;4895975;29;20687;-66
2023/12/30 01:38:55;;;;;;;6.20;3.03;;;11.50;99.90;;;;;;4879560;29;20599;-67
2023/12/30 01:41:21;;;;;;;3.60;3.30;;;11.60;99.90;;;;;;4896879;29;20518;-67
2023/12/30 01:43:47;;;;;;;4.93;3.40;;;11.50;99.90;;;;;;4897491;29;20204;-68
2023/12/30 01:46:13;;;;;;;4.60;3.30;;;11.50;99.90;;;;;;4897033;29;20182;-67
2023/12/30 01:48:39;;;;;;;4.10;3.20;;;11.40;99.90;;;;;;4898283;29;20239;-67
2023/12/30 01:51:08;;;;;;;3.97;3.40;;;11.40;99.90;;;;;;4891344;29;20457;-61
2023/12/30 01:53:39;;;;;;;5.63;3.10;;;11.40;99.90;;;;;;4897596;29;20789;-68
2023/12/30 01:56:06;;;;;;;4.03;3.70;;;11.30;99.90;;;;;;4896976;29;20467;-62
2023/12/30 01:58:34;;;;;;;4.13;3.40;;;11.20;99.90;;;;;;4896301;29;20445;-68
2023/12/30 02:01:01;;;;;;;4.80;3.40;;;11.20;99.90;;;;;;4895772;29;20490;-68
2023/12/30 02:03:27;;;;;;;4.50;4.10;;;11.20;99.90;;;;;;4876452;29;21053;-67
2023/12/30 02:05:53;;;;;;;4.27;3.90;;;11.20;99.90;;;;;;4879170;29;20915;-68
2023/12/30 02:08:20;;;;;;;3.60;3.37;;;11.10;99.90;;;;;;4892475;29;20435;-67
2023/12/30 02:10:46;;;;;;;6.37;3.50;;;11.10;99.90;;;;;;4897206;29;20179;-68
2023/12/30 02:13:12;;;;;;;3.60;3.37;;;11.20;99.90;;;;;;4894558;29;20415;-67
2023/12/30 02:15:37;;;;;;;5.37;3.63;;;11.20;99.90;;;;;;4862106;29;20486;-67
2023/12/30 02:18:04;;;;;;;5.73;3.60;;;11.20;99.90;;;;;;4896193;29;20423;-67
2023/12/30 02:20:30;;;;;;;3.80;3.50;;;11.20;99.90;;;;;;4896230;29;20244;-64
2023/12/30 02:22:56;;;;;;;6.27;3.80;;;11.20;99.90;;;;;;4879001;29;20421;-68
2023/12/30 02:25:21;;;;;;;6.30;3.27;;;11.20;99.90;;;;;;4885545;29;20438;-68
2023/12/30 02:27:47;;;;;;;4.03;3.60;;;11.10;99.90;;;;;;4894425;29;20264;-66
2023/12/30 02:30:14;;;;;;;3.50;3.17;;;11.20;99.90;;;;;;4881150;29;20597;-67
2023/12/30 02:32:40;;;;;;;4.20;3.40;;;11.10;99.90;;;;;;4894095;29;20176;-68
2023/12/30 02:35:06;;;;;;;6.70;6.20;;;11.10;99.90;;;;;;4896364;29;20484;-68
2023/12/30 02:37:32;;;;;;;3.50;3.20;;;11.20;99.90;;;;;;4896892;29;20486;-68
2023/12/30 02:39:58;;;;;;;4.50;3.33;;;11.20;99.90;;;;;;4883273;29;20531;-68
2023/12/30 02:42:23;;;;;;;3.03;2.83;;;11.10;99.90;;;;;;4878336;29;20176;-68
2023/12/30 02:44:49;;;;;;;4.10;3.40;;;11.10;99.90;;;;;;4879118;29;20623;-67
2023/12/30 02:47:15;;;;;;;3.90;3.57;;;11.10;99.90;;;;;;4896527;29;20203;-67
2023/12/30 02:49:45;;;;;;;5.90;3.50;;;11.20;99.90;;;;;;4895617;29;20467;-67
2023/12/30 02:52:11;;;;;;;5.33;4.63;;;11.10;99.90;;;;;;4895261;29;20637;-61
2023/12/30 02:54:37;;;;;;;4.73;4.13;;;11.10;99.90;;;;;;4896811;29;20435;-68
2023/12/30 02:57:04;;;;;;;4.00;3.60;;;11.10;99.90;;;;;;4879566;29;20778;-68
2023/12/30 02:59:30;;;;;;;6.50;3.67;;;11.10;99.90;;;;;;4878764;29;20186;-68
2023/12/30 03:01:56;;;;;;;7.53;4.07;;;11.10;99.90;;;;;;4897207;29;20519;-68
2023/12/30 03:04:22;;;;;;;4.97;4.00;;;11.10;99.90;;;;;;4895549;29;20514;-68
2023/12/30 03:06:48;;;;;;;8.13;3.57;;;11.10;99.90;;;;;;4896385;29;20519;-68
2023/12/30 03:09:14;;;;;;;5.90;3.70;;;11.10;99.90;;;;;;4895868;29;20558;-67
2023/12/30 03:11:40;;;;;;;7.23;4.00;;;11.10;99.90;;;;;;4879554;29;20510;-68
2023/12/30 03:14:06;;;;;;;5.40;3.60;;;11.10;99.90;;;;;;4877225;29;20468;-67
2023/12/30 03:16:32;;;;;;;4.63;3.97;;;11.10;99.90;;;;;;4890258;29;20446;-67
2023/12/30 03:18:58;;;;;;;4.00;3.60;;;11.10;99.90;;;;;;4880346;29;20417;-68
2023/12/30 03:21:25;;;;;;;3.60;3.30;;;11.10;99.90;;;;;;4895967;29;20905;-68
2023/12/30 03:23:50;;;;;;;4.53;4.10;;;11.10;99.90;;;;;;4879578;29;20185;-67
2023/12/30 03:26:16;;;;;;;4.60;3.63;;;11.10;99.90;;;;;;4896416;29;20436;-66
2023/12/30 03:28:43;;;;;;;5.20;3.83;;;11.10;99.90;;;;;;4892157;29;20661;-67
2023/12/30 03:31:27;;;;;;;7.73;4.40;;;11.10;99.90;;;;;;4895787;29;20630;-65
2023/12/30 03:33:53;;;;;;;4.83;3.40;;;11.10;99.90;;;;;;4895299;29;20430;-67
2023/12/30 03:36:19;;;;;;;5.20;3.37;;;11.10;99.90;;;;;;4895460;29;20439;-67
2023/12/30 03:38:48;;;;;;;5.70;3.17;;;11.10;99.90;;;;;;4879460;29;20440;-68
2023/12/30 03:41:14;;;;;;;6.00;3.30;;;11.10;99.90;;;;;;4894646;29;20423;-62
2023/12/30 03:43:40;;;;;;;4.20;3.90;;;11.20;99.90;;;;;;4896606;29;20466;-68
2023/12/30 03:46:05;;;;;;;7.27;3.47;;;11.20;99.90;;;;;;4878843;29;20491;-68
2023/12/30 03:48:32;;;;;;;7.47;3.70;;;11.30;99.90;;;;;;4895257;29;20182;-68
2023/12/30 03:50:58;;;;;;;7.07;4.00;;;11.10;99.90;;;;;;4879908;29;20175;-68
2023/12/30 03:53:23;;;;;;;7.17;3.70;;;11.10;99.90;;;;;;4893543;29;20438;-67
2023/12/30 03:55:49;;;;;;;4.10;3.27;;;11.00;99.90;;;;;;4895516;29;20498;-68
2023/12/30 03:58:15;;;;;;;7.50;4.43;;;11.10;99.90;;;;;;4888520;29;20300;-62
2023/12/30 04:00:41;;;;;;;4.03;3.23;;;11.00;99.90;;;;;;4879267;29;20187;-68
2023/12/30 04:03:07;;;;;;;8.20;3.53;;;11.00;99.90;;;;;;4891485;29;20195;-67
2023/12/30 04:05:32;;;;;;;6.60;4.57;;;11.10;99.90;;;;;;4881640;29;21116;-68
2023/12/30 04:07:58;;;;;;;5.90;3.80;;;11.10;99.90;;;;;;4900322;29;20651;-68
2023/12/30 04:10:24;;;;;;;6.70;3.70;;;11.10;99.90;;;;;;4898349;29;20207;-68
2023/12/30 04:12:50;;;;;;;8.20;3.87;;;11.10;99.90;;;;;;4899190;29;20192;-64
2023/12/30 04:15:16;;;;;;;9.83;3.83;;;11.10;99.90;;;;;;4898680;29;20415;-61
2023/12/30 04:17:41;;;;;;;4.63;3.37;;;11.10;99.90;;;;;;4899432;29;20189;-68
2023/12/30 04:20:07;;;;;;;4.10;3.30;;;11.10;99.90;;;;;;4899081;29;20911;-68
2023/12/30 04:22:34;;;;;;;6.03;3.83;;;11.10;99.90;;;;;;4894996;29;20183;-68
2023/12/30 04:25:00;;;;;;;6.03;4.00;;;11.20;99.90;;;;;;4882210;29;20438;-68
2023/12/30 04:27:26;;;;;;;3.90;3.60;;;11.10;99.90;;;;;;4898928;29;20464;-67
2023/12/30 04:29:52;;;;;;;7.90;3.57;;;11.10;99.90;;;;;;4898609;29;20515;-67
2023/12/30 04:32:20;;;;;;;6.37;3.90;;;11.10;99.90;;;;;;4896251;29;20932;-64
2023/12/30 04:34:46;;;;;;;5.53;3.83;;;11.10;99.90;;;;;;4881943;29;20190;-68
2023/12/30 04:37:13;;;;;;;4.70;3.83;;;11.10;99.90;;;;;;4898483;29;20422;-68
2023/12/30 04:39:39;;;;;;;7.80;3.80;;;11.10;99.90;;;;;;4898932;29;20417;-68
2023/12/30 04:42:05;;;;;;;5.97;3.80;;;11.10;99.90;;;;;;4898549;29;20930;-68
2023/12/30 04:44:31;;;;;;;7.20;3.80;;;11.10;99.90;;;;;;4896652;29;20182;-68
2023/12/30 04:46:57;;;;;;;6.90;4.10;;;11.10;99.90;;;;;;4899550;29;20411;-68
2023/12/30 04:49:22;;;;;;;7.43;4.43;;;11.20;99.90;;;;;;4880960;29;20220;-67
2023/12/30 04:51:48;;;;;;;4.10;3.70;;;11.30;99.90;;;;;;4898118;29;20572;-68
2023/12/30 04:54:14;;;;;;;7.47;4.30;;;11.20;99.90;;;;;;4881094;29;20248;-67
2023/12/30 04:56:40;;;;;;;4.17;3.77;;;11.10;99.90;;;;;;4898177;29;20594;-67
2023/12/30 04:59:06;;;;;;;8.03;4.10;;;11.10;99.90;;;;;;4881487;29;20191;-68
2023/12/30 05:01:31;;;;;;;6.67;4.30;;;11.00;99.90;;;;;;4897565;29;20182;-68
2023/12/30 05:03:57;;;;;;;6.77;4.10;;;11.00;99.90;;;;;;4899057;29;20423;-67
2023/12/30 05:06:24;;;;;;;11.03;3.90;;;11.00;99.90;;;;;;4886990;29;20185;-67
2023/12/30 05:08:51;;;;;;;10.30;4.30;;;10.90;99.90;;;;;;4854285;29;20218;-67
2023/12/30 05:11:17;;;;;;;4.10;3.57;;;10.80;99.90;;;;;;4879635;29;20508;-62
2023/12/30 05:13:43;;;;;;;4.23;3.67;;;10.90;99.90;;;;;;4890570;29;20440;-68
2023/12/30 05:16:09;;;;;;;5.50;4.10;;;10.90;99.90;;;;;;4868478;29;20431;-68
2023/12/30 05:18:35;;;;;;;6.13;3.80;;;10.80;99.90;;;;;;4879699;29;20991;-68
2023/12/30 05:21:01;;;;;;;7.60;3.70;;;10.90;99.90;;;;;;4893407;29;20442;-67
2023/12/30 05:23:26;;;;;;;4.70;3.70;;;10.90;99.90;;;;;;4885967;29;20243;-67
2023/12/30 05:25:52;;;;;;;3.83;3.53;;;10.90;99.90;;;;;;4883834;29;20191;-68
2023/12/30 05:28:18;;;;;;;6.53;4.40;;;10.80;99.90;;;;;;4889106;29;20218;-62
2023/12/30 05:30:43;;;;;;;6.10;4.00;;;10.80;99.90;;;;;;4888888;29;20225;-67
2023/12/30 05:33:09;;;;;;;5.60;3.90;;;10.80;99.90;;;;;;4879541;29;20667;-67
2023/12/30 05:35:35;;;;;;;4.03;3.70;;;10.80;99.90;;;;;;4894695;29;20678;-67
2023/12/30 05:38:02;;;;;;;4.20;3.37;;;10.80;99.90;;;;;;4895470;29;20179;-68
2023/12/30 05:40:28;;;;;;;3.60;3.30;;;10.80;99.90;;;;;;4897650;29;20419;-68
2023/12/30 05:42:54;;;;;;;3.90;3.13;;;10.70;99.90;;;;;;4897521;29;20434;-67
2023/12/30 05:45:19;;;;;;;4.53;4.13;;;10.80;99.90;;;;;;4894407;29;20212;-61
2023/12/30 05:47:45;;;;;;;10.17;4.60;;;10.80;99.90;;;;;;4879850;29;20691;-67
2023/12/30 05:50:14;;;;;;;10.60;4.00;;;10.70;99.90;;;;;;4893173;29;20701;-68
2023/12/30 05:52:40;;;;;;;5.23;3.60;;;10.80;99.90;;;;;;4888152;29;20190;-64
2023/12/30 05:55:06;;;;;;;5.57;3.27;;;10.70;99.90;;;;;;4890681;29;20869;-67
2023/12/30 05:57:32;;;;;;;6.80;3.53;;;10.80;99.90;;;;;;4894504;29;20438;-67
2023/12/30 05:59:58;;;;;;;5.40;4.00;;;10.80;99.90;;;;;;4896930;29;20464;-64
2023/12/30 06:02:23;;;;;;;5.47;3.90;;;10.90;99.90;;;;;;4897250;29;20258;-63
2023/12/30 06:04:49;;;;;;;6.07;3.57;;;10.90;99.90;;;;;;4894963;29;20264;-64
2023/12/30 06:07:15;;;;;;;6.10;3.37;;;10.90;99.90;;;;;;4880136;29;20249;-65
2023/12/30 06:09:41;;;;;;;10.40;4.40;;;10.90;99.90;;;;;;4896053;29;20199;-63
2023/12/30 06:12:08;;;;;;;4.20;3.60;;;11.00;99.90;;;;;;4897763;29;20439;-66
2023/12/30 06:14:36;;;;;;;8.03;3.70;;;10.90;99.90;;;;;;4896189;29;20439;-61
2023/12/30 06:17:02;;;;;;;4.40;4.00;;;10.90;99.90;;;;;;4893097;29;20430;-62
2023/12/30 06:19:28;;;;;;;6.47;3.67;;;11.00;99.90;;;;;;4897132;29;20411;-65
2023/12/30 06:21:54;;;;;;;3.40;3.20;;;11.00;99.90;;;;;;4877014;29;20481;-66
2023/12/30 06:24:20;;;;;;;4.20;3.90;;;11.00;99.90;;;;;;4894421;29;20193;-64
2023/12/30 06:26:46;;;;;;;5.43;3.37;;;11.10;99.90;;;;;;4885221;29;20198;-66
2023/12/30 06:29:12;;;;;;;7.90;3.80;;;11.10;99.90;;;;;;4895675;29;20459;-64
2023/12/30 06:31:42;;;;;;;5.97;4.10;;;11.10;99.90;;;;;;4879872;29;20642;-66
2023/12/30 06:34:09;;;;;;;6.67;4.20;;;11.10;99.90;;;;;;4896807;29;20208;-66
2023/12/30 06:36:35;;;;;;;11.00;4.40;;;11.10;99.90;;;;;;4890613;29;20434;-66
2023/12/30 06:39:01;;;;;;;9.07;5.40;;;11.10;99.90;;;;;;4896779;29;20899;-65
2023/12/30 06:41:27;;;;;;;8.17;4.20;;;11.10;99.90;;;;;;4895330;29;20183;-65
2023/12/30 06:43:53;;;;;;;6.30;3.73;;;11.10;99.90;;;;;;4896786;29;20514;-66
2023/12/30 06:46:20;;;;;;;4.40;3.97;;;11.10;99.90;;;;;;4897216;29;20930;-66
2023/12/30 06:48:46;;;;;;;6.40;4.07;;;11.10;99.90;;;;;;4895627;29;20210;-68
2023/12/30 06:51:12;;;;;;;5.10;4.07;;;11.00;99.90;;;;;;4895910;29;20434;-65
2023/12/30 06:53:38;;;;;;;6.60;4.67;;;11.00;99.90;;;;;;4895691;29;20899;-65
2023/12/30 06:56:04;;;;;;;7.43;6.00;;;11.00;99.90;;;;;;4896005;29;20309;-65
2023/12/30 06:58:30;;;;;;;6.23;4.40;;;11.00;99.90;;;;;;4894702;29;20276;-65
2023/12/30 07:00:56;;;;;;;12.00;4.23;;;10.90;99.90;;;;;;4874587;29;20538;-65
2023/12/30 07:03:22;;;;;;;6.03;3.87;;;10.90;99.90;;;;;;4880837;29;20459;-61
2023/12/30 07:05:48;;;;;;;6.83;3.97;;;10.90;99.90;;;;;;4885398;29;20439;-65
2023/12/30 07:08:14;;;;;;;7.27;4.80;;;10.90;99.90;;;;;;4893538;29;20206;-65
2023/12/30 07:10:40;;;;;;;7.40;3.97;;;11.00;99.90;;;;;;4893963;29;20222;-63
2023/12/30 07:13:06;;;;;;;5.30;4.43;;;10.90;99.90;;;;;;4896580;29;20418;-67
2023/12/30 07:15:32;;;;;;;6.40;4.23;;;11.00;99.90;;;;;;4889986;29;20654;-65
2023/12/30 07:17:59;;;;;;;6.60;4.30;;;11.00;99.90;;;;;;4895681;29;20424;-65
2023/12/30 07:20:28;;;;;;;5.23;3.50;;;11.00;99.90;;;;;;4895826;29;20263;-61
2023/12/30 07:22:56;;;;;;;5.13;3.83;;;11.10;99.90;;;;;;4896196;29;20435;-66
2023/12/30 07:25:22;;;;;;;4.67;4.10;;;11.10;99.90;;;;;;4896915;29;20430;-65
2023/12/30 07:27:49;;;;;;;6.93;4.33;;;11.00;99.90;;;;;;4878019;29;20975;-65
2023/12/30 07:30:14;;;;;;;5.07;3.83;;;11.00;99.90;;;;;;4895947;29;20463;-65
2023/12/30 07:32:40;;;;;;;4.30;3.70;;;11.00;99.90;;;;;;4895662;29;20425;-67
2023/12/30 07:35:07;;;;;;;6.67;4.00;;;11.00;99.90;;;;;;4883300;29;20270;-67
2023/12/30 07:37:34;;;;;;;6.90;4.30;;;11.10;99.90;;;;;;4854519;29;20187;-65
2023/12/30 07:40:01;;;;;;;5.93;4.03;;;11.10;99.90;;;;;;4877158;29;20966;-65
2023/12/30 07:42:27;;;;;;;5.30;3.90;;;11.00;99.90;;;;;;4889695;29;20822;-61
2023/12/30 07:44:53;;;;;;;7.20;4.30;;;11.10;99.90;;;;;;4894450;29;20435;-65
2023/12/30 07:47:20;;;;;;;5.73;4.00;;;11.10;99.90;;;;;;4882552;29;20194;-65
2023/12/30 07:49:47;;;;;;;5.83;4.27;;;11.10;99.90;;;;;;4868920;29;20506;-65
2023/12/30 07:52:12;;;;;;;7.70;4.30;;;11.10;99.90;;;;;;4899019;29;20493;-65
2023/12/30 07:54:38;;;;;;;7.73;4.37;;;11.10;99.90;;;;;;4898997;29;20832;-65
2023/12/30 07:57:04;;;;;;;8.13;4.93;;;11.10;99.90;;;;;;4897739;29;20576;-65
2023/12/30 07:59:30;;;;;;;6.10;3.90;;;11.00;99.90;;;;;;4890912;29;20192;-64
2023/12/30 08:01:56;;;;;;;5.10;4.53;;;11.00;99.90;;;;;;4898036;29;20490;-61
2023/12/30 08:04:23;;;;;;;6.60;6.03;;;11.00;99.90;;;;;;4907279;29;20183;-60
2023/12/30 08:06:49;;;;;;;6.87;6.27;;;11.90;99.90;;;;;;4903289;29;20430;-60
2023/12/30 08:09:15;;;;;;;6.57;6.13;;;12.20;99.90;;;;;;4885371;29;20489;-60
2023/12/30 08:11:42;;;;;;;7.73;7.13;;;12.60;99.90;;;;;;4903605;29;20430;-59
2023/12/30 08:14:08;;;;;;;8.23;6.60;;;13.10;99.90;;;;;;4907258;29;20270;-59
2023/12/30 08:16:37;;;;;;;6.00;5.50;;;13.40;99.90;;;;;;4891628;29;20790;-60
2023/12/30 08:19:03;;;;;;;6.10;5.13;;;13.70;99.90;;;;;;4890257;29;20491;-60
2023/12/30 08:21:30;;;;;;;5.20;4.80;;;14.00;99.90;;;;;;4875336;29;20541;-60
2023/12/30 08:23:57;;;;;;;4.93;4.53;;;14.30;99.90;;;;;;4904149;29;20437;-60
2023/12/30 08:26:27;;;;;;;6.60;4.40;;;14.60;99.90;;;;;;4907665;29;20463;-60
2023/12/30 08:28:54;;;;;;;7.77;4.93;;;14.70;99.90;;;;;;4899393;29;20459;-60
2023/12/30 08:31:21;;;;;;;7.07;4.30;;;14.90;99.90;;;;;;4889217;29;20440;-60
2023/12/30 08:33:48;;;;;;;4.57;4.27;;;15.00;99.90;;;;;;4897372;29;20433;-60
2023/12/30 08:36:13;;;;;;;5.97;5.07;;;15.10;99.90;;;;;;4896980;29;20515;-61
2023/12/30 08:38:39;;;;;;;6.30;4.73;;;15.20;99.90;;;;;;4896585;29;20540;-60
2023/12/30 08:41:09;;;;;;;6.93;4.13;;;15.20;99.90;;;;;;4898257;29;20534;-59
2023/12/30 08:43:36;;;;;;;5.47;3.93;;;15.40;99.90;;;;;;4894904;29;20424;-69
2023/12/30 08:46:02;;;;;;;5.07;3.90;;;15.30;99.90;;;;;;4897749;29;20423;-69
2023/12/30 08:48:28;;;;;;;4.97;4.13;;;15.00;99.90;;;;;;4899123;29;20424;-69
2023/12/30 08:50:53;;;;;;;7.23;4.40;;;14.50;99.90;;;;;;4898127;29;20538;-69
2023/12/30 08:53:24;;;;;;;7.20;4.33;;;14.10;99.90;;;;;;4898824;29;20426;-69
2023/12/30 08:55:52;;;;;;;3.90;3.70;;;13.80;99.90;;;;;;4890911;29;20356;-71
2023/12/30 08:58:18;;;;;;;6.17;4.70;;;13.40;99.90;;;;;;4869647;29;20442;-70
2023/12/30 09:00:44;;;;;;;5.33;3.40;;;13.20;99.90;;;;;;4887002;29;20446;-69
2023/12/30 09:03:10;;;;;;;7.77;4.00;;;12.90;99.90;;;;;;4898276;29;20438;-70
2023/12/30 09:05:36;;;;;;;9.13;4.10;;;12.60;99.90;;;;;;4896312;29;20434;-69
2023/12/30 09:08:04;;;;;;;4.63;4.20;;;12.50;99.90;;;;;;4886569;29;20290;-67
2023/12/30 09:10:31;;;;;;;5.57;3.93;;;12.30;99.90;;;;;;4894001;29;20459;-66
2023/12/30 09:12:58;;;;;;;4.80;3.80;;;12.10;99.90;;;;;;4889935;29;20433;-71
2023/12/30 09:15:24;;;;;;;5.70;3.70;;;12.00;99.90;;;;;;4880335;29;20459;-68
2023/12/30 09:17:49;;;;;;;5.93;4.07;;;12.00;99.90;;;;;;4896279;29;20912;-70
2023/12/30 09:20:15;;;;;;;3.60;3.30;;;11.80;99.90;;;;;;4877676;29;20428;-69
2023/12/30 09:22:41;;;;;;;5.60;4.10;;;11.80;99.90;;;;;;4884486;29;20267;-69
2023/12/30 09:25:07;;;;;;;9.40;4.20;;;11.80;99.90;;;;;;4892904;29;20180;-68
2023/12/30 09:27:33;;;;;;;5.53;3.80;;;11.70;99.90;;;;;;4874365;29;20184;-64
2023/12/30 09:29:58;;;;;;;4.47;4.00;;;11.70;99.90;;;;;;4881263;29;20800;-72
2023/12/30 09:32:24;;;;;;;5.90;4.00;;;11.60;99.90;;;;;;4894749;29;20534;-73
2023/12/30 09:34:50;;;;;;;7.03;5.53;;;11.60;99.90;;;;;;4897191;29;20183;-75
2023/12/30 09:37:17;;;;;;;4.53;4.13;;;11.60;99.90;;;;;;4893696;29;20187;-72
2023/12/30 09:39:50;;;;;;;6.00;4.37;;;11.50;99.90;;;;;;4862844;29;20193;-72
2023/12/30 09:42:16;;;;;;;6.53;4.30;;;11.50;99.90;;;;;;4886084;29;20441;-73
2023/12/30 09:44:42;;;;;;;6.60;4.10;;;11.50;99.90;;;;;;4880353;29;20542;-72
2023/12/30 09:47:10;;;;;;;6.10;4.17;;;11.50;99.90;;;;;;4879328;29;20649;-72
2023/12/30 09:49:37;;;;;;;5.60;4.47;;;11.50;99.90;;;;;;4862275;29;20463;-64
2023/12/30 09:52:07;;;;;;;4.93;4.27;;;11.40;99.90;;;;;;4892910;29;20430;-72
2023/12/30 09:54:33;;;;;;;4.60;3.90;;;11.50;99.90;;;;;;4892250;29;20441;-65
2023/12/30 09:57:00;;;;;;;5.40;4.30;;;11.50;99.90;;;;;;4896248;29;20481;-71
2023/12/30 09:59:29;;;;;;;5.20;4.27;;;11.50;99.90;;;;;;4885502;29;20441;-72
2023/12/30 10:01:55;;;;;;;5.23;4.00;;;11.50;99.90;;;;;;4896456;29;20889;-74
2023/12/30 10:04:21;;;;;;;7.90;4.40;;;11.50;99.90;;;;;;4873533;29;20485;-79
2023/12/30 10:06:49;;;;;;;9.10;4.20;;;11.50;99.90;;;;;;4895580;29;20427;-76
2023/12/30 10:09:16;;;;;;;9.50;4.80;;;11.50;99.90;;;;;;4874369;29;20461;-75
2023/12/30 10:11:45;;;;;;;7.40;4.20;;;11.50;99.90;;;;;;4880346;29;20443;-75
2023/12/30 10:14:10;;;;;;;10.60;4.00;;;11.60;99.90;;;;;;4897200;29;20792;-71
2023/12/30 10:16:36;;;;;;;7.63;4.63;;;11.60;99.90;;;;;;4895663;29;20436;-62
2023/12/30 10:19:03;;;;;;;7.07;4.83;;;11.60;99.90;;;;;;4896584;29;20639;-69
2023/12/30 10:21:29;;;;;;;8.33;4.80;;;11.60;99.90;;;;;;4897044;29;20214;-70
2023/12/30 10:23:58;;;;;;;6.10;5.17;;;11.60;99.90;;;;;;4895812;29;21375;-75
2023/12/30 10:26:24;;;;;;;7.10;4.17;;;11.60;99.90;;;;;;4896053;29;20434;-66
2023/12/30 10:28:49;;;;;;;7.50;4.60;;;11.60;99.90;;;;;;4896363;29;20420;-63
2023/12/30 10:31:16;;;;;;;8.20;5.53;;;11.60;99.90;;;;;;4895306;29;20452;-66
2023/12/30 10:33:42;;;;;;;5.03;4.47;;;11.70;99.90;;;;;;4872071;29;20207;-65
2023/12/30 10:36:10;;;;;;;6.53;5.23;;;11.70;99.90;;;;;;4894791;29;20467;-66
2023/12/30 10:38:36;;;;;;;5.87;4.70;;;11.70;99.90;;;;;;4876119;29;20483;-61
2023/12/30 10:41:02;;;;;;;10.13;7.10;;;11.70;99.90;;;;;;4892863;29;20496;-66
2023/12/30 10:43:28;;;;;;;7.63;4.90;;;11.70;99.90;;;;;;4893783;29;20436;-65
2023/12/30 10:45:58;;;;;;;7.33;4.20;;;11.70;99.90;;;;;;4892064;29;20424;-65
2023/12/30 10:48:33;;;;;;;5.43;4.33;;;11.70;99.90;;;;;;4894897;29;20186;-65
2023/12/30 10:51:00;;;;;;;6.57;4.00;;;11.70;99.90;;;;;;4892099;29;20550;-66
2023/12/30 10:53:29;;;;;;;6.03;5.20;;;11.70;99.90;;;;;;4895115;29;21387;-65
2023/12/30 10:56:01;;;;;;;5.00;4.57;;;11.70;99.90;;;;;;4894762;29;20533;-64
2023/12/30 10:58:30;;;;;;;5.47;3.97;;;11.80;99.90;;;;;;4893816;29;20510;-70
2023/12/30 11:00:59;;;;;;;5.63;4.60;;;11.70;99.90;;;;;;4895123;29;20486;-70
2023/12/30 11:03:26;;;;;;;10.50;4.67;;;11.70;99.90;;;;;;4864132;29;20486;-69
2023/12/30 11:06:09;;;;;;;6.67;4.73;;;11.80;99.90;;;;;;4880749;29;20443;-69
2023/12/30 11:08:36;;;;;;;5.57;4.13;;;11.80;99.90;;;;;;4879769;29;20518;-67
2023/12/30 11:11:03;;;;;;;8.80;4.80;;;11.90;99.90;;;;;;4879197;29;20497;-67
2023/12/30 11:13:36;;;;;;;6.13;5.10;;;11.90;99.90;;;;;;4897677;29;20454;-68
2023/12/30 11:16:12;;;;;;;74.10;48.87;;;12.00;99.90;;;;;;4896378;29;20450;-69
2023/12/30 11:18:59;;;;;;;342.07;211.43;;;12.10;99.90;;;;;;4896328;29;20786;-62
2023/12/30 11:21:38;;;;;;;12.13;8.20;;;12.10;99.90;;;;;;4880423;29;20442;-69
2023/12/30 11:24:06;;;;;;;5.67;4.10;;;12.10;99.90;;;;;;4902306;29;20438;-68
2023/12/30 11:26:33;;;;;;;6.00;4.20;;;12.00;99.90;;;;;;4903451;29;20548;-69
2023/12/30 11:29:00;;;;;;;9.00;5.00;;;12.00;99.90;;;;;;4904958;29;20497;-70
2023/12/30 11:31:36;;;;;;;5.73;3.70;;;12.00;99.90;;;;;;4905964;29;20517;-70
2023/12/30 11:34:06;;;;;;;7.03;4.80;;;12.00;99.90;;;;;;4904444;29;20410;-70
2023/12/30 11:36:32;;;;;;;8.43;4.60;;;12.10;99.90;;;;;;4902359;29;20431;-70
2023/12/30 11:39:00;;;;;;;10.90;4.20;;;12.10;99.90;;;;;;4903345;29;20435;-70
2023/12/30 11:41:27;;;;;;;7.60;4.30;;;12.10;99.90;;;;;;4904727;29;20436;-70
2023/12/30 11:43:58;;;;;;;5.33;3.70;;;12.10;99.90;;;;;;4906168;29;20516;-70
2023/12/30 11:46:28;;;;;;;7.10;3.97;;;12.10;99.90;;;;;;4907244;29;20460;-69
2023/12/30 11:48:56;;;;;;;4.40;3.53;;;12.20;99.90;;;;;;4887571;29;20833;-70
2023/12/30 11:51:27;;;;;;;9.33;4.80;;;12.20;99.90;;;;;;4906828;29;20428;-71
2023/12/30 11:53:53;;;;;;;4.50;4.10;;;12.20;99.90;;;;;;4903589;29;20425;-71
2023/12/30 11:56:21;;;;;;;4.53;4.23;;;12.20;99.90;;;;;;4889636;29;20486;-69
2023/12/30 11:58:51;;;;;;;6.07;4.27;;;12.30;99.90;;;;;;4885028;29;20530;-69
2023/12/30 12:01:20;;;;;;;162.00;96.37;;;12.30;99.90;;;;;;4878506;29;20429;-67
2023/12/30 12:03:46;;;;;;;159.17;108.23;;;12.40;99.90;;;;;;4863675;29;20424;-72
2023/12/30 12:06:13;;;;;;;14.33;8.77;;;12.30;99.90;;;;;;4892660;29;20426;-72
2023/12/30 12:08:39;;;;;;;4.80;4.00;;;12.40;99.90;;;;;;4884960;29;20462;-65
2023/12/30 12:11:06;;;;;;;10.33;4.30;;;12.40;99.90;;;;;;4886125;29;20438;-72
2023/12/30 12:13:32;;;;;;;4.93;3.67;;;12.40;99.90;;;;;;4882422;29;20502;-73
2023/12/30 12:15:58;;;;;;;4.70;4.30;;;12.40;99.90;;;;;;4898485;29;20425;-71
2023/12/30 12:18:24;;;;;;;8.13;4.50;;;12.40;99.90;;;;;;4893078;29;20187;-72
2023/12/30 12:20:51;;;;;;;7.47;4.40;;;12.50;99.90;;;;;;4889908;29;20428;-73
2023/12/30 12:23:17;;;;;;;8.37;4.80;;;12.50;99.90;;;;;;4891011;29;20942;-71
2023/12/30 12:25:44;;;;;;;9.10;5.83;;;12.50;99.90;;;;;;4889633;29;20445;-62
2023/12/30 12:28:12;;;;;;;8.87;4.57;;;12.60;99.90;;;;;;4892188;29;20435;-72
2023/12/30 12:30:39;;;;;;;12.87;4.63;;;12.60;99.90;;;;;;4889483;29;20586;-73
2023/12/30 12:33:06;;;;;;;8.27;4.63;;;12.60;99.90;;;;;;4897928;29;20957;-73
2023/12/30 12:35:32;;;;;;;238.30;139.20;;;12.60;99.90;;;;;;4896743;29;20421;-71
2023/12/30 12:37:59;;;;;;;283.20;172.30;;;12.60;99.90;;;;;;4877971;29;20434;-71
2023/12/30 12:40:25;;;;;;;14.93;8.40;;;12.70;99.90;;;;;;4865836;29;20186;-71
2023/12/30 12:42:51;;;;;;;5.03;4.37;;;12.70;99.90;;;;;;4884916;29;20463;-71